sensor_id;sensor_type;location;lat;lon;timestamp;pressure;altitude;pressure_sealevel;temperature;humidity
73063;BME280;61230;46.328;19.972;2023-03-26T00:01:52;100213.47;;;6.97;100.00
73063;BME280;61230;46.328;19.972;2023-03-26T00:04:20;100234.75;;;6.92;100.00
73063;BME280;61230;46.328;19.972;2023-03-26T00:06:48;100183.25;;;6.61;100.00
73063;BME280;61230;46.328;19.972;2023-03-26T00:09:17;100230.84;;;6.86;100.00
73063;BME280;61230;46.328;19.972;2023-03-26T00:11:45;100233.94;;;6.80;100.00
73063;BME280;61230;46.328;19.972;2023-03-26T00:14:13;100234.19;;;6.77;100.00
73063;BME280;61230;46.328;19.972;2023-03-26T00:16:43;100238.81;;;6.74;100.00
73063;BME280;61230;46.328;19.972;2023-03-26T00:19:12;100242.38;;;6.73;100.00
73063;BME280;61230;46.328;19.972;2023-03-26T00:21:40;100244.28;;;6.71;100.00
73063;BME280;61230;46.328;19.972;2023-03-26T00:24:10;100219.84;;;6.50;100.00
73063;BME280;61230;46.328;19.972;2023-03-26T00:26:42;100252.50;;;6.66;100.00
73063;BME280;61230;46.328;19.972;2023-03-26T00:29:10;100251.78;;;6.64;100.00
73063;BME280;61230;46.328;19.972;2023-03-26T00:31:40;100256.91;;;6.66;100.00
73063;BME280;61230;46.328;19.972;2023-03-26T00:34:13;100252.84;;;6.62;100.00
73063;BME280;61230;46.328;19.972;2023-03-26T00:36:42;100259.03;;;6.61;100.00
73063;BME280;61230;46.328;19.972;2023-03-26T00:39:10;100204.28;;;6.26;100.00
73063;BME280;61230;46.328;19.972;2023-03-26T00:41:38;100255.47;;;6.51;100.00
73063;BME280;61230;46.328;19.972;2023-03-26T00:44:10;100264.97;;;6.52;100.00
73063;BME280;61230;46.328;19.972;2023-03-26T00:46:38;100251.44;;;6.47;100.00
73063;BME280;61230;46.328;19.972;2023-03-26T00:49:05;100250.47;;;6.48;100.00
73063;BME280;61230;46.328;19.972;2023-03-26T00:51:37;100191.31;;;6.13;100.00
73063;BME280;61230;46.328;19.972;2023-03-26T00:54:08;100188.38;;;6.18;100.00
73063;BME280;61230;46.328;19.972;2023-03-26T00:56:35;100231.59;;;6.44;100.00
73063;BME280;61230;46.328;19.972;2023-03-26T00:59:05;100229.34;;;6.40;100.00
73063;BME280;61230;46.328;19.972;2023-03-26T01:01:35;100241.00;;;6.35;100.00
73063;BME280;61230;46.328;19.972;2023-03-26T01:04:29;100228.38;;;6.29;100.00
73063;BME280;61230;46.328;19.972;2023-03-26T01:07:01;100224.94;;;6.29;100.00
73063;BME280;61230;46.328;19.972;2023-03-26T01:09:34;100221.84;;;6.24;100.00
73063;BME280;61230;46.328;19.972;2023-03-26T01:12:05;100212.22;;;6.24;100.00
73063;BME280;61230;46.328;19.972;2023-03-26T01:14:33;100198.91;;;6.16;100.00
73063;BME280;61230;46.328;19.972;2023-03-26T01:17:03;100214.81;;;6.24;100.00
73063;BME280;61230;46.328;19.972;2023-03-26T01:22:19;100210.09;;;6.18;100.00
73063;BME280;61230;46.328;19.972;2023-03-26T01:24:48;100221.59;;;6.16;100.00
73063;BME280;61230;46.328;19.972;2023-03-26T01:27:48;100225.16;;;6.15;100.00
73063;BME280;61230;46.328;19.972;2023-03-26T01:30:25;100220.78;;;6.15;100.00
73063;BME280;61230;46.328;19.972;2023-03-26T01:33:18;100229.56;;;6.14;100.00
73063;BME280;61230;46.328;19.972;2023-03-26T01:37:07;100232.53;;;6.10;100.00
73063;BME280;61230;46.328;19.972;2023-03-26T01:40:10;100226.69;;;6.06;100.00
73063;BME280;61230;46.328;19.972;2023-03-26T01:43:23;100223.84;;;6.09;100.00
73063;BME280;61230;46.328;19.972;2023-03-26T01:45:34;100213.66;;;6.06;100.00
73063;BME280;61230;46.328;19.972;2023-03-26T01:48:04;100216.03;;;6.09;100.00
73063;BME280;61230;46.328;19.972;2023-03-26T01:50:32;100218.50;;;6.11;100.00
73063;BME280;61230;46.328;19.972;2023-03-26T01:53:00;100163.97;;;5.84;100.00
73063;BME280;61230;46.328;19.972;2023-03-26T01:55:58;100213.19;;;6.12;100.00
73063;BME280;61230;46.328;19.972;2023-03-26T01:58:34;100227.66;;;6.16;100.00
73063;BME280;61230;46.328;19.972;2023-03-26T02:03:47;100233.09;;;6.13;100.00
73063;BME280;61230;46.328;19.972;2023-03-26T02:06:31;100236.91;;;6.09;99.27
73063;BME280;61230;46.328;19.972;2023-03-26T02:09:10;100246.41;;;6.10;98.64
73063;BME280;61230;46.328;19.972;2023-03-26T02:11:40;100233.84;;;6.15;97.89
73063;BME280;61230;46.328;19.972;2023-03-26T02:14:08;100186.97;;;5.79;97.90
73063;BME280;61230;46.328;19.972;2023-03-26T02:16:36;100235.25;;;6.08;97.84
73063;BME280;61230;46.328;19.972;2023-03-26T02:19:04;100231.22;;;6.04;98.07
73063;BME280;61230;46.328;19.972;2023-03-26T02:21:31;100229.53;;;6.03;97.89
73063;BME280;61230;46.328;19.972;2023-03-26T02:24:00;100236.31;;;6.06;97.31
73063;BME280;61230;46.328;19.972;2023-03-26T02:26:33;100237.37;;;6.03;97.22
73063;BME280;61230;46.328;19.972;2023-03-26T02:29:03;100228.72;;;6.03;97.00
73063;BME280;61230;46.328;19.972;2023-03-26T02:31:31;100219.09;;;5.92;96.78
73063;BME280;61230;46.328;19.972;2023-03-26T02:33:59;100240.09;;;6.02;96.52
73063;BME280;61230;46.328;19.972;2023-03-26T02:36:27;100219.31;;;5.89;96.28
73063;BME280;61230;46.328;19.972;2023-03-26T02:38:56;100234.41;;;5.97;96.18
73063;BME280;61230;46.328;19.972;2023-03-26T02:41:28;100241.38;;;5.96;96.23
73063;BME280;61230;46.328;19.972;2023-03-26T02:43:55;100245.91;;;5.94;96.35
73063;BME280;61230;46.328;19.972;2023-03-26T02:46:24;100241.75;;;5.92;96.21
73063;BME280;61230;46.328;19.972;2023-03-26T02:48:52;100198.09;;;5.59;95.79
73063;BME280;61230;46.328;19.972;2023-03-26T02:51:21;100251.72;;;5.87;95.82
73063;BME280;61230;46.328;19.972;2023-03-26T02:53:49;100239.19;;;5.79;95.90
73063;BME280;61230;46.328;19.972;2023-03-26T02:56:19;100201.72;;;5.45;96.13
73063;BME280;61230;46.328;19.972;2023-03-26T02:58:47;100252.72;;;5.73;96.37
73063;BME280;61230;46.328;19.972;2023-03-26T03:01:15;100250.34;;;5.70;96.51
73063;BME280;61230;46.328;19.972;2023-03-26T03:03:46;100253.25;;;5.65;96.85
73063;BME280;61230;46.328;19.972;2023-03-26T03:06:15;100253.00;;;5.57;97.74
73063;BME280;61230;46.328;19.972;2023-03-26T03:08:45;100250.63;;;5.54;97.89
73063;BME280;61230;46.328;19.972;2023-03-26T03:11:16;100249.06;;;5.52;98.56
73063;BME280;61230;46.328;19.972;2023-03-26T03:13:44;100252.12;;;5.46;98.87
73063;BME280;61230;46.328;19.972;2023-03-26T03:16:15;100253.09;;;5.45;99.25
73063;BME280;61230;46.328;19.972;2023-03-26T03:18:42;100249.03;;;5.41;99.63
73063;BME280;61230;46.328;19.972;2023-03-26T03:21:10;100240.50;;;5.39;99.68
73063;BME280;61230;46.328;19.972;2023-03-26T03:23:38;100242.47;;;5.35;100.00
73063;BME280;61230;46.328;19.972;2023-03-26T03:26:12;100233.31;;;5.30;100.00
73063;BME280;61230;46.328;19.972;2023-03-26T03:28:42;100234.69;;;5.22;100.00
73063;BME280;61230;46.328;19.972;2023-03-26T03:31:12;100234.00;;;5.20;100.00
73063;BME280;61230;46.328;19.972;2023-03-26T03:33:40;100229.44;;;5.11;100.00
73063;BME280;61230;46.328;19.972;2023-03-26T03:36:10;100189.66;;;4.73;100.00
73063;BME280;61230;46.328;19.972;2023-03-26T03:38:48;100235.78;;;4.96;100.00
73063;BME280;61230;46.328;19.972;2023-03-26T03:41:16;100239.94;;;4.86;100.00
73063;BME280;61230;46.328;19.972;2023-03-26T03:43:45;100235.50;;;4.76;100.00
73063;BME280;61230;46.328;19.972;2023-03-26T03:46:13;100228.25;;;4.68;100.00
73063;BME280;61230;46.328;19.972;2023-03-26T03:48:41;100229.38;;;4.64;100.00
73063;BME280;61230;46.328;19.972;2023-03-26T03:51:16;100227.00;;;4.61;100.00
73063;BME280;61230;46.328;19.972;2023-03-26T03:53:46;100231.56;;;4.57;100.00
73063;BME280;61230;46.328;19.972;2023-03-26T03:56:14;100235.16;;;4.56;100.00
73063;BME280;61230;46.328;19.972;2023-03-26T03:58:47;100234.31;;;4.56;100.00
73063;BME280;61230;46.328;19.972;2023-03-26T04:01:15;100181.72;;;4.26;100.00
73063;BME280;61230;46.328;19.972;2023-03-26T04:03:44;100185.50;;;4.22;100.00
73063;BME280;61230;46.328;19.972;2023-03-26T04:06:14;100240.66;;;4.52;100.00
73063;BME280;61230;46.328;19.972;2023-03-26T04:08:46;100232.75;;;4.53;100.00
73063;BME280;61230;46.328;19.972;2023-03-26T04:11:14;100237.22;;;4.51;100.00
73063;BME280;61230;46.328;19.972;2023-03-26T04:13:45;100237.22;;;4.51;100.00
73063;BME280;61230;46.328;19.972;2023-03-26T04:16:13;100239.94;;;4.50;100.00
73063;BME280;61230;46.328;19.972;2023-03-26T04:18:41;100241.06;;;4.46;100.00
73063;BME280;61230;46.328;19.972;2023-03-26T04:21:12;100240.34;;;4.44;100.00
73063;BME280;61230;46.328;19.972;2023-03-26T04:23:42;100216.84;;;4.33;100.00
73063;BME280;61230;46.328;19.972;2023-03-26T04:26:15;100245.34;;;4.47;100.00
73063;BME280;61230;46.328;19.972;2023-03-26T04:28:57;100244.31;;;4.49;100.00
73063;BME280;61230;46.328;19.972;2023-03-26T04:31:27;100248.88;;;4.46;100.00
73063;BME280;61230;46.328;19.972;2023-03-26T04:34:06;100252.66;;;4.42;100.00
73063;BME280;61230;46.328;19.972;2023-03-26T04:36:37;100260.56;;;4.40;100.00
73063;BME280;61230;46.328;19.972;2023-03-26T04:39:10;100257.47;;;4.48;100.00
73063;BME280;61230;46.328;19.972;2023-03-26T04:41:43;100255.56;;;4.50;100.00
73063;BME280;61230;46.328;19.972;2023-03-26T04:44:13;100208.31;;;4.18;100.00
73063;BME280;61230;46.328;19.972;2023-03-26T04:46:44;100270.87;;;4.54;100.00
73063;BME280;61230;46.328;19.972;2023-03-26T04:49:12;100272.66;;;4.54;100.00
73063;BME280;61230;46.328;19.972;2023-03-26T04:51:40;100272.53;;;4.55;100.00
73063;BME280;61230;46.328;19.972;2023-03-26T04:54:12;100226.22;;;4.23;100.00
73063;BME280;61230;46.328;19.972;2023-03-26T04:56:53;100280.56;;;4.52;100.00
73063;BME280;61230;46.328;19.972;2023-03-26T04:59:28;100278.69;;;4.54;100.00
73063;BME280;61230;46.328;19.972;2023-03-26T05:02:04;100278.59;;;4.56;100.00
73063;BME280;61230;46.328;19.972;2023-03-26T05:04:33;100245.47;;;4.33;100.00
73063;BME280;61230;46.328;19.972;2023-03-26T05:07:03;100287.03;;;4.59;100.00
73063;BME280;61230;46.328;19.972;2023-03-26T05:09:32;100277.22;;;4.63;100.00
73063;BME280;61230;46.328;19.972;2023-03-26T05:12:01;100270.34;;;4.62;100.00
73063;BME280;61230;46.328;19.972;2023-03-26T05:14:34;100217.34;;;4.38;100.00
73063;BME280;61230;46.328;19.972;2023-03-26T05:17:03;100268.75;;;4.72;100.00
73063;BME280;61230;46.328;19.972;2023-03-26T05:19:38;100219.31;;;4.47;100.00
73063;BME280;61230;46.328;19.972;2023-03-26T05:22:06;100276.16;;;4.78;100.00
73063;BME280;61230;46.328;19.972;2023-03-26T05:24:35;100280.22;;;4.82;100.00
73063;BME280;61230;46.328;19.972;2023-03-26T05:27:04;100289.47;;;4.86;100.00
73063;BME280;61230;46.328;19.972;2023-03-26T05:29:31;100233.13;;;4.60;100.00
73063;BME280;61230;46.328;19.972;2023-03-26T05:31:59;100285.53;;;4.93;100.00
73063;BME280;61230;46.328;19.972;2023-03-26T05:34:27;100292.66;;;5.02;100.00
73063;BME280;61230;46.328;19.972;2023-03-26T05:36:55;100281.72;;;5.10;100.00
73063;BME280;61230;46.328;19.972;2023-03-26T05:39:23;100280.00;;;5.21;100.00
73063;BME280;61230;46.328;19.972;2023-03-26T05:41:54;100187.56;;;4.65;100.00
73063;BME280;61230;46.328;19.972;2023-03-26T05:44:24;100201.72;;;4.74;100.00
73063;BME280;61230;46.328;19.972;2023-03-26T05:46:51;100296.25;;;5.49;100.00
73063;BME280;61230;46.328;19.972;2023-03-26T05:49:19;100291.31;;;5.57;100.00
73063;BME280;61230;46.328;19.972;2023-03-26T05:51:47;100289.56;;;5.68;100.00
73063;BME280;61230;46.328;19.972;2023-03-26T05:54:15;100285.94;;;5.82;100.00
73063;BME280;61230;46.328;19.972;2023-03-26T05:56:59;100290.44;;;5.93;100.00
73063;BME280;61230;46.328;19.972;2023-03-26T05:59:33;100294.59;;;6.06;100.00
73063;BME280;61230;46.328;19.972;2023-03-26T06:02:09;100307.47;;;6.20;100.00
73063;BME280;61230;46.328;19.972;2023-03-26T06:04:39;100291.56;;;6.34;100.00
73063;BME280;61230;46.328;19.972;2023-03-26T06:07:10;100245.59;;;6.21;100.00
73063;BME280;61230;46.328;19.972;2023-03-26T06:09:39;100292.88;;;6.62;100.00
73063;BME280;61230;46.328;19.972;2023-03-26T06:12:09;100280.87;;;6.71;100.00
73063;BME280;61230;46.328;19.972;2023-03-26T06:14:37;100236.31;;;6.61;99.71
73063;BME280;61230;46.328;19.972;2023-03-26T06:17:06;100289.78;;;7.02;99.47
73063;BME280;61230;46.328;19.972;2023-03-26T06:19:34;100296.28;;;7.18;97.69
73063;BME280;61230;46.328;19.972;2023-03-26T06:22:03;100301.25;;;7.32;97.28
73063;BME280;61230;46.328;19.972;2023-03-26T06:24:31;100303.03;;;7.43;96.36
73063;BME280;61230;46.328;19.972;2023-03-26T06:27:00;100294.16;;;7.55;95.98
73063;BME280;61230;46.328;19.972;2023-03-26T06:29:29;100303.28;;;7.72;94.82
73063;BME280;61230;46.328;19.972;2023-03-26T06:31:57;100292.50;;;7.86;94.98
73063;BME280;61230;46.328;19.972;2023-03-26T06:34:39;100245.19;;;7.67;93.17
73063;BME280;61230;46.328;19.972;2023-03-26T06:37:08;100304.50;;;8.09;93.07
73063;BME280;61230;46.328;19.972;2023-03-26T06:39:36;100295.38;;;8.24;91.31
73063;BME280;61230;46.328;19.972;2023-03-26T06:42:04;100293.41;;;8.37;92.12
73063;BME280;61230;46.328;19.972;2023-03-26T06:44:33;100291.16;;;8.53;90.88
73063;BME280;61230;46.328;19.972;2023-03-26T06:47:03;100213.44;;;8.22;90.50
73063;BME280;61230;46.328;19.972;2023-03-26T06:49:31;100296.38;;;8.84;89.01
73063;BME280;61230;46.328;19.972;2023-03-26T06:52:02;100288.84;;;9.00;88.95
73063;BME280;61230;46.328;19.972;2023-03-26T06:54:33;100284.75;;;9.16;86.89
73063;BME280;61230;46.328;19.972;2023-03-26T06:57:02;100286.00;;;9.32;85.66
73063;BME280;61230;46.328;19.972;2023-03-26T06:59:29;100282.03;;;9.47;84.64
73063;BME280;61230;46.328;19.972;2023-03-26T07:02:01;100267.81;;;9.59;84.84
73063;BME280;61230;46.328;19.972;2023-03-26T07:04:38;100230.63;;;9.44;84.77
73063;BME280;61230;46.328;19.972;2023-03-26T07:07:16;100275.38;;;9.91;83.20
73063;BME280;61230;46.328;19.972;2023-03-26T07:09:52;100229.22;;;9.78;80.23
73063;BME280;61230;46.328;19.972;2023-03-26T07:12:22;100175.16;;;9.66;80.94
73063;BME280;61230;46.328;19.972;2023-03-26T07:14:50;100224.03;;;10.06;80.33
73063;BME280;61230;46.328;19.972;2023-03-26T07:17:20;100264.34;;;10.53;80.02
73063;BME280;61230;46.328;19.972;2023-03-26T07:19:49;100264.31;;;10.62;77.82
73063;BME280;61230;46.328;19.972;2023-03-26T07:22:23;100259.28;;;10.78;77.22
73063;BME280;61230;46.328;19.972;2023-03-26T07:24:53;100262.09;;;10.94;76.37
73063;BME280;61230;46.328;19.972;2023-03-26T07:30:34;100262.03;;;11.22;75.25
73063;BME280;61230;46.328;19.972;2023-03-26T07:33:30;100265.00;;;11.36;75.09
73063;BME280;61230;46.328;19.972;2023-03-26T07:39:04;100225.56;;;11.44;72.12
73063;BME280;61230;46.328;19.972;2023-03-26T07:41:49;100269.62;;;11.87;71.67
73063;BME280;61230;46.328;19.972;2023-03-26T07:47:30;100278.66;;;12.02;67.52
73063;BME280;61230;46.328;19.972;2023-03-26T07:50:00;100279.06;;;12.16;68.91
73063;BME280;61230;46.328;19.972;2023-03-26T07:52:29;100270.06;;;12.26;68.63
73063;BME280;61230;46.328;19.972;2023-03-26T07:54:58;100264.47;;;12.29;66.29
73063;BME280;61230;46.328;19.972;2023-03-26T08:03:07;100269.78;;;12.63;65.10
73063;BME280;61230;46.328;19.972;2023-03-26T08:06:18;100270.00;;;12.78;65.81
73063;BME280;61230;46.328;19.972;2023-03-26T08:08:58;100263.81;;;12.95;65.54
73063;BME280;61230;46.328;19.972;2023-03-26T08:12:00;100258.88;;;13.00;63.92
73063;BME280;61230;46.328;19.972;2023-03-26T08:17:22;100246.94;;;13.21;61.98
73063;BME280;61230;46.328;19.972;2023-03-26T08:22:44;100252.25;;;13.54;62.15
73063;BME280;61230;46.328;19.972;2023-03-26T08:28:19;100260.56;;;13.75;60.28
73063;BME280;61230;46.328;19.972;2023-03-26T08:30:51;100255.44;;;13.73;57.69
73063;BME280;61230;46.328;19.972;2023-03-26T08:33:24;100249.81;;;13.85;57.18
73063;BME280;61230;46.328;19.972;2023-03-26T08:35:53;100250.97;;;13.98;57.25
73063;BME280;61230;46.328;19.972;2023-03-26T08:38:21;100244.66;;;14.15;56.09
73063;BME280;61230;46.328;19.972;2023-03-26T08:54:51;100217.75;;;14.67;51.37
73063;BME280;61230;46.328;19.972;2023-03-26T08:57:42;100214.75;;;14.70;50.33
73063;BME280;61230;46.328;19.972;2023-03-26T09:05:58;100181.56;;;14.82;47.17
73063;BME280;61230;46.328;19.972;2023-03-26T09:26:46;100211.78;;;15.57;46.84
73063;BME280;61230;46.328;19.972;2023-03-26T09:37:59;100207.19;;;15.88;47.65
73063;BME280;61230;46.328;19.972;2023-03-26T09:40:36;100191.38;;;15.95;49.46
73063;BME280;61230;46.328;19.972;2023-03-26T09:57:27;100132.91;;;16.18;45.97
73063;BME280;61230;46.328;19.972;2023-03-26T10:16:59;100153.06;;;17.13;43.24
73063;BME280;61230;46.328;19.972;2023-03-26T10:20:02;100155.03;;;17.04;41.40
73063;BME280;61230;46.328;19.972;2023-03-26T10:50:56;100089.44;;;17.88;40.05
73063;BME280;61230;46.328;19.972;2023-03-26T10:53:42;100090.41;;;18.15;40.72
73063;BME280;61230;46.328;19.972;2023-03-26T10:56:40;100085.22;;;18.41;39.79
73063;BME280;61230;46.328;19.972;2023-03-26T10:59:12;100068.31;;;18.68;37.64
73063;BME280;61230;46.328;19.972;2023-03-26T11:04:48;100059.50;;;18.74;35.94
73063;BME280;61230;46.328;19.972;2023-03-26T11:10:15;100057.66;;;18.75;35.79
73063;BME280;61230;46.328;19.972;2023-03-26T11:13:02;100043.31;;;18.82;33.49
73063;BME280;61230;46.328;19.972;2023-03-26T11:15:55;100047.44;;;19.11;33.51
73063;BME280;61230;46.328;19.972;2023-03-26T11:21:19;100038.84;;;19.29;32.54
73063;BME280;61230;46.328;19.972;2023-03-26T11:26:47;100041.91;;;19.32;31.85
73063;BME280;61230;46.328;19.972;2023-03-26T11:29:53;100035.50;;;18.68;32.03
73063;BME280;61230;46.328;19.972;2023-03-26T11:32:25;100032.69;;;19.15;32.43
73063;BME280;61230;46.328;19.972;2023-03-26T11:35:20;100028.78;;;19.18;31.70
73063;BME280;61230;46.328;19.972;2023-03-26T11:38:37;99981.38;;;18.74;31.74
73063;BME280;61230;46.328;19.972;2023-03-26T11:41:27;100022.00;;;18.89;32.44
73063;BME280;61230;46.328;19.972;2023-03-26T11:44:02;100005.78;;;19.36;32.17
73063;BME280;61230;46.328;19.972;2023-03-26T11:46:41;99996.09;;;19.68;32.83
73063;BME280;61230;46.328;19.972;2023-03-26T11:49:12;99998.94;;;19.73;32.13
73063;BME280;61230;46.328;19.972;2023-03-26T11:51:45;99984.22;;;19.51;30.91
73063;BME280;61230;46.328;19.972;2023-03-26T11:54:15;99972.44;;;19.78;30.86
73063;BME280;61230;46.328;19.972;2023-03-26T11:56:46;99978.19;;;19.75;31.37
73063;BME280;61230;46.328;19.972;2023-03-26T11:59:40;99974.25;;;19.91;30.72
73063;BME280;61230;46.328;19.972;2023-03-26T12:05:25;99972.41;;;20.36;31.18
73063;BME280;61230;46.328;19.972;2023-03-26T12:07:57;99935.25;;;20.28;29.87
73063;BME280;61230;46.328;19.972;2023-03-26T12:13:28;99951.16;;;20.72;29.72
73063;BME280;61230;46.328;19.972;2023-03-26T12:16:07;99946.41;;;20.49;29.88
73063;BME280;61230;46.328;19.972;2023-03-26T12:18:36;99945.09;;;20.21;28.90
73063;BME280;61230;46.328;19.972;2023-03-26T12:21:08;99944.38;;;20.07;28.34
73063;BME280;61230;46.328;19.972;2023-03-26T12:23:42;99906.81;;;19.95;28.84
73063;BME280;61230;46.328;19.972;2023-03-26T12:26:14;99937.16;;;20.14;28.84
73063;BME280;61230;46.328;19.972;2023-03-26T12:28:48;99927.53;;;20.44;29.48
73063;BME280;61230;46.328;19.972;2023-03-26T12:31:17;99927.59;;;20.62;28.55
73063;BME280;61230;46.328;19.972;2023-03-26T12:34:15;99901.63;;;20.94;29.20
73063;BME280;61230;46.328;19.972;2023-03-26T12:36:54;99897.78;;;20.84;28.34
73063;BME280;61230;46.328;19.972;2023-03-26T12:39:41;99900.81;;;20.94;28.24
73063;BME280;61230;46.328;19.972;2023-03-26T12:42:31;99899.22;;;20.86;27.49
73063;BME280;61230;46.328;19.972;2023-03-26T12:45:36;99891.88;;;20.57;28.63
73063;BME280;61230;46.328;19.972;2023-03-26T12:48:04;99873.81;;;20.77;27.63
73063;BME280;61230;46.328;19.972;2023-03-26T12:55:57;99861.34;;;20.64;28.42
73063;BME280;61230;46.328;19.972;2023-03-26T13:01:37;99865.91;;;20.39;28.50
73063;BME280;61230;46.328;19.972;2023-03-26T13:04:20;99856.13;;;20.76;27.37
73063;BME280;61230;46.328;19.972;2023-03-26T13:07:02;99852.62;;;20.51;27.97
73063;BME280;61230;46.328;19.972;2023-03-26T13:17:49;99833.16;;;20.13;27.66
73063;BME280;61230;46.328;19.972;2023-03-26T13:20:30;99833.81;;;20.08;28.59
73063;BME280;61230;46.328;19.972;2023-03-26T13:23:20;99825.31;;;20.49;29.05
73063;BME280;61230;46.328;19.972;2023-03-26T13:31:23;99813.88;;;20.11;29.80
73063;BME280;61230;46.328;19.972;2023-03-26T13:37:07;99800.38;;;20.30;29.35
73063;BME280;61230;46.328;19.972;2023-03-26T13:44:55;99794.84;;;20.32;27.98
73063;BME280;61230;46.328;19.972;2023-03-26T13:47:35;99787.13;;;20.42;28.63
73063;BME280;61230;46.328;19.972;2023-03-26T13:50:17;99777.94;;;20.56;28.06
73063;BME280;61230;46.328;19.972;2023-03-26T13:52:52;99770.50;;;20.40;27.95
73063;BME280;61230;46.328;19.972;2023-03-26T13:55:41;99769.41;;;20.23;26.97
73063;BME280;61230;46.328;19.972;2023-03-26T13:58:41;99762.63;;;19.95;27.55
73063;BME280;61230;46.328;19.972;2023-03-26T14:01:14;99772.81;;;19.36;28.95
73063;BME280;61230;46.328;19.972;2023-03-26T14:07:00;99755.97;;;18.98;29.30
73063;BME280;61230;46.328;19.972;2023-03-26T14:09:38;99754.63;;;18.62;30.74
73063;BME280;61230;46.328;19.972;2023-03-26T14:12:22;99755.09;;;18.53;31.46
73063;BME280;61230;46.328;19.972;2023-03-26T14:15:05;99761.84;;;18.35;30.99
73063;BME280;61230;46.328;19.972;2023-03-26T14:20:35;99701.44;;;17.64;32.90
73063;BME280;61230;46.328;19.972;2023-03-26T14:23:47;99737.84;;;17.57;32.46
73063;BME280;61230;46.328;19.972;2023-03-26T14:35:12;99719.44;;;17.55;31.64
73063;BME280;61230;46.328;19.972;2023-03-26T14:37:56;99718.63;;;17.61;32.48
73063;BME280;61230;46.328;19.972;2023-03-26T14:43:14;99710.38;;;17.50;32.56
73063;BME280;61230;46.328;19.972;2023-03-26T14:54:26;99693.59;;;17.49;31.55
73063;BME280;61230;46.328;19.972;2023-03-26T14:57:23;99689.13;;;17.50;32.15
73063;BME280;61230;46.328;19.972;2023-03-26T15:12:12;99673.75;;;18.11;31.80
73063;BME280;61230;46.328;19.972;2023-03-26T15:23:56;99648.59;;;17.94;31.18
73063;BME280;61230;46.328;19.972;2023-03-26T15:41:25;99616.44;;;18.72;30.72
73063;BME280;61230;46.328;19.972;2023-03-26T15:47:14;99615.62;;;18.72;30.87
73063;BME280;61230;46.328;19.972;2023-03-26T15:49:54;99620.03;;;18.53;31.42
73063;BME280;61230;46.328;19.972;2023-03-26T15:52:40;99607.88;;;18.64;31.85
73063;BME280;61230;46.328;19.972;2023-03-26T15:57:50;99599.34;;;18.35;32.45
73063;BME280;61230;46.328;19.972;2023-03-26T16:00:28;99598.19;;;18.18;32.41
73063;BME280;61230;46.328;19.972;2023-03-26T16:11:06;99588.84;;;17.83;33.70
73063;BME280;61230;46.328;19.972;2023-03-26T16:13:42;99589.06;;;17.82;33.91
73063;BME280;61230;46.328;19.972;2023-03-26T16:16:23;99535.66;;;17.44;33.99
73063;BME280;61230;46.328;19.972;2023-03-26T16:21:54;99570.44;;;17.42;34.55
73063;BME280;61230;46.328;19.972;2023-03-26T16:24:26;99524.62;;;17.01;35.03
73063;BME280;61230;46.328;19.972;2023-03-26T16:27:05;99552.81;;;16.95;35.38
73063;BME280;61230;46.328;19.972;2023-03-26T16:32:31;99551.00;;;16.35;36.41
73063;BME280;61230;46.328;19.972;2023-03-26T16:35:31;99552.37;;;16.12;36.76
73063;BME280;61230;46.328;19.972;2023-03-26T16:38:15;99546.31;;;15.83;37.52
73063;BME280;61230;46.328;19.972;2023-03-26T16:49:46;99538.19;;;15.08;39.71
73063;BME280;61230;46.328;19.972;2023-03-26T16:52:41;99523.38;;;14.92;39.99
73063;BME280;61230;46.328;19.972;2023-03-26T17:00:44;99523.03;;;14.38;41.66
73063;BME280;61230;46.328;19.972;2023-03-26T17:08:33;99526.53;;;14.10;44.89
73063;BME280;61230;46.328;19.972;2023-03-26T17:14:29;99520.34;;;13.88;46.32
73063;BME280;61230;46.328;19.972;2023-03-26T17:25:21;99521.91;;;13.39;49.53
73063;BME280;61230;46.328;19.972;2023-03-26T17:33:37;99529.44;;;13.04;51.27
73063;BME280;61230;46.328;19.972;2023-03-26T17:41:48;99514.13;;;12.77;52.28
73063;BME280;61230;46.328;19.972;2023-03-26T17:47:12;99508.16;;;12.60;52.78
73063;BME280;61230;46.328;19.972;2023-03-26T17:49:43;99514.13;;;12.54;53.08
73063;BME280;61230;46.328;19.972;2023-03-26T17:52:19;99511.22;;;12.49;53.06
73063;BME280;61230;46.328;19.972;2023-03-26T17:54:53;99506.63;;;12.43;53.61
73063;BME280;61230;46.328;19.972;2023-03-26T17:57:28;99502.88;;;12.38;53.83
73063;BME280;61230;46.328;19.972;2023-03-26T17:59:59;99502.59;;;12.33;53.72
73063;BME280;61230;46.328;19.972;2023-03-26T18:02:45;99497.00;;;12.28;53.81
73063;BME280;61230;46.328;19.972;2023-03-26T18:05:16;99510.53;;;12.25;53.71
73063;BME280;61230;46.328;19.972;2023-03-26T18:18:53;99487.59;;;12.02;53.37
73063;BME280;61230;46.328;19.972;2023-03-26T18:21:48;99486.62;;;11.95;53.19
73063;BME280;61230;46.328;19.972;2023-03-26T18:24:26;99486.97;;;11.92;52.90
73063;BME280;61230;46.328;19.972;2023-03-26T18:29:33;99480.22;;;11.90;52.57
73063;BME280;61230;46.328;19.972;2023-03-26T18:34:39;99464.41;;;11.90;52.45
73063;BME280;61230;46.328;19.972;2023-03-26T18:37:17;99460.16;;;11.89;51.91
73063;BME280;61230;46.328;19.972;2023-03-26T18:39:56;99464.94;;;11.85;51.88
73063;BME280;61230;46.328;19.972;2023-03-26T18:42:27;99465.59;;;11.87;51.74
73063;BME280;61230;46.328;19.972;2023-03-26T18:44:57;99462.13;;;11.87;51.63
73063;BME280;61230;46.328;19.972;2023-03-26T18:47:31;99450.75;;;11.86;51.52
73063;BME280;61230;46.328;19.972;2023-03-26T18:50:00;99456.03;;;11.86;51.51
73063;BME280;61230;46.328;19.972;2023-03-26T18:52:30;99396.84;;;11.58;51.10